createdAt,value
2018-12-03T00:01:12.801Z,9.87
2018-12-03T00:03:40.840Z,10.77
2018-12-03T00:06:08.881Z,11.40
2018-12-03T00:08:36.792Z,13.43
2018-12-03T00:11:04.983Z,14.07
2018-12-03T00:13:32.896Z,15.17
2018-12-03T00:16:00.764Z,15.07
2018-12-03T00:18:28.714Z,14.73
2018-12-03T00:20:56.650Z,15.97
2018-12-03T00:23:24.571Z,18.90
2018-12-03T00:25:52.783Z,17.03
2018-12-03T00:28:20.732Z,17.80
2018-12-03T00:30:48.614Z,16.83
2018-12-03T00:33:16.558Z,18.87
2018-12-03T00:35:44.494Z,18.63
2018-12-03T00:38:12.385Z,19.30
2018-12-03T00:40:40.295Z,17.03
2018-12-03T00:43:08.259Z,20.37
2018-12-03T00:45:36.171Z,18.97
2018-12-03T00:48:04.133Z,18.37
2018-12-03T00:50:32.047Z,19.03
2018-12-03T00:52:59.947Z,19.17
2018-12-03T00:55:27.843Z,19.03
2018-12-03T00:57:55.754Z,19.93
2018-12-03T01:00:23.626Z,20.93
2018-12-03T01:02:51.711Z,20.97
2018-12-03T01:05:19.571Z,22.40
2018-12-03T01:07:47.444Z,21.00
2018-12-03T01:10:15.317Z,21.87
2018-12-03T01:12:43.187Z,23.33
2018-12-03T01:15:11.146Z,23.63
2018-12-03T01:17:39.035Z,22.03
2018-12-03T01:20:09.915Z,21.43
2018-12-03T01:22:37.843Z,25.37
2018-12-03T01:25:06.003Z,22.57
2018-12-03T01:27:33.899Z,24.50
2018-12-03T01:30:01.796Z,24.53
2018-12-03T01:32:29.674Z,24.33
2018-12-03T01:34:57.644Z,20.53
2018-12-03T01:37:25.543Z,24.67
2018-12-03T01:39:53.534Z,23.57
2018-12-03T01:42:21.447Z,23.70
2018-12-03T01:44:49.338Z,23.03
2018-12-03T01:47:17.289Z,24.27
2018-12-03T01:49:45.171Z,21.00
2018-12-03T01:52:13.118Z,21.73
2018-12-03T01:54:41.050Z,22.57
2018-12-03T01:57:08.960Z,20.20
2018-12-03T01:59:36.923Z,20.90
2018-12-03T02:02:05.027Z,21.23
2018-12-03T02:04:32.949Z,21.70
2018-12-03T02:07:00.921Z,21.70
2018-12-03T02:09:28.826Z,19.90
2018-12-03T02:11:56.748Z,21.33
2018-12-03T02:14:24.658Z,19.33
2018-12-03T02:16:52.614Z,23.33
2018-12-03T02:19:20.507Z,21.73
2018-12-03T02:21:48.442Z,20.20
2018-12-03T02:24:16.361Z,17.50
2018-12-03T02:26:44.279Z,19.70
2018-12-03T02:29:12.174Z,20.90
2018-12-03T02:31:40.105Z,18.50
2018-12-03T02:34:08.048Z,19.67
2018-12-03T02:36:35.991Z,18.63
2018-12-03T02:39:05.967Z,21.07
2018-12-03T02:41:33.920Z,18.93
2018-12-03T02:44:01.839Z,18.13
2018-12-03T02:46:29.794Z,20.87
2018-12-03T02:48:57.701Z,18.77
2018-12-03T02:51:25.641Z,18.70
2018-12-03T02:53:53.550Z,17.90
2018-12-03T02:56:21.420Z,20.37
2018-12-03T02:58:49.375Z,19.17
2018-12-03T03:01:17.470Z,18.40
2018-12-03T03:03:45.389Z,19.03
2018-12-03T03:06:13.286Z,17.97
2018-12-03T03:08:41.197Z,20.07
2018-12-03T03:11:09.140Z,22.13
2018-12-03T03:13:37.103Z,21.00
2018-12-03T03:16:04.990Z,21.80
2018-12-03T03:18:32.999Z,18.73
2018-12-03T03:21:00.928Z,18.10
2018-12-03T03:23:28.827Z,18.90
2018-12-03T03:25:56.713Z,19.87
2018-12-03T03:28:24.617Z,21.07
2018-12-03T03:30:52.621Z,19.57
2018-12-03T03:33:20.520Z,21.67
2018-12-03T03:35:48.479Z,20.13
2018-12-03T03:38:16.407Z,20.17
2018-12-03T03:40:44.349Z,19.10
2018-12-03T03:43:12.272Z,20.77
2018-12-03T03:45:40.199Z,17.77
2018-12-03T03:48:08.160Z,19.27
2018-12-03T03:50:36.092Z,16.90
2018-12-03T03:53:04.098Z,16.87
2018-12-03T03:55:31.987Z,17.67
2018-12-03T03:57:59.878Z,15.17
2018-12-03T04:00:27.778Z,14.93
2018-12-03T04:02:55.744Z,18.23
2018-12-03T04:05:23.618Z,13.57
2018-12-03T04:07:51.572Z,15.43
2018-12-03T04:10:19.456Z,11.77
2018-12-03T04:12:47.365Z,13.57
2018-12-03T04:15:16.000Z,12.90
2018-12-03T04:17:43.983Z,12.60
2018-12-03T04:20:17.062Z,11.43
2018-12-03T04:22:46.351Z,10.90
2018-12-03T04:25:14.279Z,12.03
2018-12-03T04:27:42.241Z,11.87
2018-12-03T04:30:16.253Z,12.20
2018-12-03T04:32:44.117Z,12.17
2018-12-03T04:35:12.552Z,12.10
2018-12-03T04:37:40.617Z,11.50
2018-12-03T04:40:10.983Z,11.20
2018-12-03T04:42:38.895Z,12.40
2018-12-03T04:45:09.552Z,11.53
2018-12-03T04:47:37.458Z,11.53
2018-12-03T04:50:08.528Z,10.57
2018-12-03T04:52:36.483Z,11.20
2018-12-03T04:55:04.580Z,10.77
2018-12-03T04:57:32.530Z,10.57
2018-12-03T05:00:00.392Z,10.50
2018-12-03T05:02:28.331Z,10.23
2018-12-03T05:04:56.403Z,10.00
2018-12-03T05:07:24.293Z,10.00
2018-12-03T05:09:52.178Z,11.57
2018-12-03T05:12:20.130Z,9.90
2018-12-03T05:14:48.036Z,10.30
2018-12-03T05:17:15.967Z,9.23
2018-12-03T05:19:43.886Z,9.03
2018-12-03T05:22:11.800Z,10.07
2018-12-03T05:24:39.738Z,10.10
2018-12-03T05:27:07.771Z,11.00
2018-12-03T05:29:35.675Z,11.33
2018-12-03T05:32:03.621Z,10.13
2018-12-03T05:34:31.551Z,9.03
2018-12-03T05:36:59.475Z,11.60
2018-12-03T05:39:27.435Z,9.50
2018-12-03T05:41:55.350Z,9.80
2018-12-03T05:44:23.302Z,9.70
2018-12-03T05:46:51.179Z,10.40
2018-12-03T05:49:19.084Z,9.20
2018-12-03T05:51:46.963Z,9.27
2018-12-03T05:54:14.906Z,9.17
2018-12-03T05:56:42.852Z,9.33
2018-12-03T05:59:10.772Z,8.27
2018-12-03T06:01:38.708Z,10.97
2018-12-03T06:04:06.679Z,8.83
2018-12-03T06:06:34.563Z,8.43
2018-12-03T06:09:02.827Z,8.13
2018-12-03T06:11:30.717Z,8.93
2018-12-03T06:13:58.660Z,8.43
2018-12-03T06:16:26.534Z,7.10
2018-12-03T06:18:54.463Z,9.63
2018-12-03T06:21:22.411Z,7.47
2018-12-03T06:23:50.295Z,7.37
2018-12-03T06:26:18.203Z,6.87
2018-12-03T06:28:46.100Z,7.27
2018-12-03T06:31:14.015Z,6.87
2018-12-03T06:33:41.919Z,7.33
2018-12-03T06:36:09.853Z,7.67
2018-12-03T06:38:37.768Z,7.47
2018-12-03T06:41:05.694Z,7.93
2018-12-03T06:43:33.591Z,7.17
2018-12-03T06:46:01.633Z,7.07
2018-12-03T06:48:29.561Z,8.53
2018-12-03T06:50:57.416Z,10.73
2018-12-03T06:53:25.330Z,9.03
2018-12-03T06:55:53.243Z,8.87
2018-12-03T06:58:21.150Z,10.97
2018-12-03T07:00:49.069Z,10.97
2018-12-03T07:05:51.518Z,7.93
2018-12-03T07:08:19.805Z,10.07
2018-12-03T07:10:47.746Z,9.23
2018-12-03T07:13:18.851Z,5.87
2018-12-03T07:15:48.582Z,8.70
2018-12-03T07:18:16.517Z,8.63
2018-12-03T07:20:44.479Z,5.30
2018-12-03T07:23:12.347Z,5.37
2018-12-03T07:25:40.239Z,5.27
2018-12-03T07:28:08.160Z,5.87
2018-12-03T07:30:36.055Z,5.30
2018-12-03T07:33:04.049Z,5.23
2018-12-03T07:35:32.005Z,6.37
2018-12-03T07:37:59.928Z,5.07
2018-12-03T07:40:27.824Z,7.50
2018-12-03T07:42:55.695Z,6.33
2018-12-03T07:45:24.422Z,6.77
2018-12-03T07:47:52.309Z,9.60
2018-12-03T07:50:21.301Z,6.70
2018-12-03T07:52:49.276Z,6.03
2018-12-03T07:55:18.495Z,6.83
2018-12-03T07:57:51.661Z,6.97
2018-12-03T08:00:24.509Z,9.47
2018-12-03T08:02:52.458Z,8.73
2018-12-03T08:05:20.316Z,6.93
2018-12-03T08:07:48.248Z,8.50
2018-12-03T08:10:17.104Z,7.63
2018-12-03T08:12:46.039Z,7.93
2018-12-03T08:15:15.326Z,9.33
2018-12-03T08:17:46.802Z,8.33
2018-12-03T08:20:22.354Z,8.03
2018-12-03T08:22:52.148Z,10.93
2018-12-03T08:25:20.847Z,5.80
2018-12-03T08:27:48.747Z,8.80
2018-12-03T08:30:16.709Z,4.87
2018-12-03T08:32:44.583Z,7.70
2018-12-03T08:35:14.377Z,6.03
2018-12-03T08:37:42.364Z,5.87
2018-12-03T08:40:13.904Z,8.53
2018-12-03T08:42:45.628Z,7.33
2018-12-03T08:45:13.593Z,11.63
2018-12-03T08:47:41.471Z,8.43
2018-12-03T08:50:15.539Z,11.43
2018-12-03T08:52:43.403Z,9.73
2018-12-03T08:55:11.804Z,6.53
2018-12-03T08:57:39.770Z,9.77
2018-12-03T09:00:10.138Z,8.30
2018-12-03T09:02:56.736Z,8.73
2018-12-03T09:05:25.709Z,11.10
2018-12-03T09:07:53.668Z,10.73
2018-12-03T09:10:22.136Z,5.83
2018-12-03T09:12:50.627Z,11.87
2018-12-03T09:15:18.538Z,12.97
2018-12-03T09:17:46.545Z,13.80
2018-12-03T09:20:14.392Z,8.47
2018-12-03T09:22:42.312Z,9.63
2018-12-03T09:25:20.840Z,10.30
2018-12-03T09:27:48.960Z,8.20
2018-12-03T09:30:16.885Z,10.87
2018-12-03T09:32:44.856Z,7.43
2018-12-03T09:35:12.802Z,10.60
2018-12-03T09:37:40.733Z,10.40
2018-12-03T09:40:11.832Z,9.90
2018-12-03T09:42:39.748Z,8.53
2018-12-03T09:45:14.102Z,7.10
2018-12-03T09:47:41.992Z,14.90
2018-12-03T09:50:24.588Z,8.57
2018-12-03T09:52:52.904Z,10.37
2018-12-03T09:55:32.377Z,7.93
2018-12-03T09:58:06.627Z,8.80
2018-12-03T10:00:34.555Z,6.87
2018-12-03T10:03:05.192Z,13.90
2018-12-03T10:05:36.758Z,13.43
2018-12-03T10:08:04.701Z,10.50
2018-12-03T10:10:32.627Z,9.43
2018-12-03T10:13:05.920Z,11.13
2018-12-03T10:15:34.000Z,15.73
2018-12-03T10:18:01.905Z,9.77
2018-12-03T10:20:29.792Z,11.13
2018-12-03T10:22:58.049Z,9.20
2018-12-03T10:25:26.019Z,11.90
2018-12-03T10:28:00.622Z,10.27
2018-12-03T10:30:28.782Z,12.27
2018-12-03T10:32:56.650Z,15.27
2018-12-03T10:35:32.306Z,18.93
2018-12-03T10:38:08.575Z,14.50
2018-12-03T10:40:40.307Z,11.50
2018-12-03T10:43:09.815Z,9.47
2018-12-03T10:45:37.773Z,13.10
2018-12-03T10:48:06.115Z,11.63
2018-12-03T10:50:34.063Z,9.83
2018-12-03T10:53:02.063Z,16.27
2018-12-03T10:55:30.063Z,11.33
2018-12-03T10:57:58.032Z,10.83
2018-12-03T11:00:31.570Z,12.93
2018-12-03T11:03:06.850Z,17.83
2018-12-03T11:05:40.324Z,12.73
2018-12-03T11:08:08.237Z,12.23
2018-12-03T11:10:38.679Z,16.43
2018-12-03T11:13:06.696Z,13.30
2018-12-03T11:15:34.647Z,12.63
2018-12-03T11:18:03.731Z,15.57
2018-12-03T11:20:32.596Z,14.10
2018-12-03T11:23:00.526Z,16.07
2018-12-03T11:25:31.495Z,12.63
2018-12-03T11:28:01.148Z,11.57
2018-12-03T11:30:29.369Z,19.10
2018-12-03T11:32:57.280Z,13.30
2018-12-03T11:35:29.056Z,14.40
2018-12-03T11:38:05.975Z,13.00
2018-12-03T11:40:42.647Z,12.23
2018-12-03T11:43:10.839Z,14.83
2018-12-03T11:45:38.717Z,13.57
2018-12-03T11:48:07.109Z,15.47
2018-12-03T11:50:35.124Z,17.53
2018-12-03T11:53:03.025Z,12.50
2018-12-03T11:55:30.903Z,13.80
2018-12-03T11:57:58.775Z,13.83
2018-12-03T12:00:26.752Z,14.43
2018-12-03T12:02:54.665Z,13.63
2018-12-03T12:05:22.572Z,18.13
2018-12-03T12:07:50.452Z,11.30
2018-12-03T12:10:18.550Z,11.47
2018-12-03T12:12:46.379Z,13.13
2018-12-03T12:15:14.231Z,12.80
2018-12-03T12:17:42.210Z,12.00
2018-12-03T12:20:10.662Z,10.90
2018-12-03T12:22:38.574Z,10.80
2018-12-03T12:25:09.831Z,12.00
2018-12-03T12:27:38.268Z,13.53
2018-12-03T12:30:11.471Z,15.40
2018-12-03T12:32:39.388Z,14.47
2018-12-03T12:35:08.019Z,16.67
2018-12-03T12:37:35.851Z,13.77
2018-12-03T12:40:04.732Z,12.40
2018-12-03T12:42:32.645Z,11.93
2018-12-03T12:45:00.499Z,10.00
2018-12-03T12:47:28.400Z,13.43
2018-12-03T12:49:56.293Z,15.67
2018-12-03T12:52:24.258Z,15.20
2018-12-03T12:54:52.167Z,15.27
2018-12-03T12:57:20.123Z,10.63
2018-12-03T12:59:48.000Z,18.00
2018-12-03T13:02:16.563Z,15.93
2018-12-03T13:04:44.429Z,13.80
2018-12-03T13:07:12.355Z,13.73
2018-12-03T13:09:40.310Z,12.80
2018-12-03T13:12:08.524Z,16.47
2018-12-03T13:14:36.408Z,13.93
2018-12-03T13:17:04.275Z,12.20
2018-12-03T13:19:32.131Z,12.37
2018-12-03T13:22:00.179Z,13.50
2018-12-03T13:24:28.076Z,15.13
2018-12-03T13:26:56.100Z,12.30
2018-12-03T13:29:24.100Z,16.53
2018-12-03T13:31:51.973Z,14.80
2018-12-03T13:34:19.833Z,15.03
2018-12-03T13:36:47.708Z,18.63
2018-12-03T13:39:15.595Z,13.03
2018-12-03T13:41:43.483Z,15.17
2018-12-03T13:44:11.457Z,12.60
2018-12-03T13:46:39.409Z,13.73
2018-12-03T13:49:07.984Z,12.30
2018-12-03T13:51:36.044Z,9.80
2018-12-03T13:54:03.993Z,12.27
2018-12-03T13:56:31.950Z,13.63
2018-12-03T13:58:59.791Z,14.20
2018-12-03T14:01:27.698Z,12.00
2018-12-03T14:04:01.235Z,11.63
2018-12-03T14:07:13.896Z,11.67
2018-12-03T14:09:55.522Z,16.30
2018-12-03T14:12:30.255Z,12.53
2018-12-03T14:15:40.629Z,16.93
2018-12-03T14:18:18.049Z,14.00
2018-12-03T14:20:48.239Z,15.47
2018-12-03T14:23:20.102Z,14.27
2018-12-03T14:25:47.583Z,14.93
2018-12-03T14:28:15.450Z,9.40
2018-12-03T14:30:43.447Z,16.30
2018-12-03T14:33:11.333Z,14.73
2018-12-03T14:35:39.267Z,11.17
2018-12-03T14:38:07.195Z,12.17
2018-12-03T14:40:35.086Z,14.73
2018-12-03T14:43:03.015Z,11.40
2018-12-03T14:45:31.040Z,10.90
2018-12-03T14:47:58.968Z,15.13
2018-12-03T14:50:26.807Z,15.17
2018-12-03T14:52:54.740Z,11.47
2018-12-03T14:55:22.651Z,13.70
2018-12-03T14:57:50.532Z,16.93
2018-12-03T15:00:18.490Z,15.53
2018-12-03T15:02:46.393Z,18.43
2018-12-03T15:05:14.242Z,13.20
2018-12-03T15:07:42.161Z,15.97
2018-12-03T15:10:10.049Z,18.77
2018-12-03T15:12:37.925Z,18.80
2018-12-03T15:15:08.036Z,19.20
2018-12-03T15:17:36.841Z,11.57
2018-12-03T15:20:05.774Z,19.73
2018-12-03T15:22:33.674Z,17.67
2018-12-03T15:25:01.611Z,14.97
2018-12-03T15:27:29.723Z,17.87
2018-12-03T15:29:57.630Z,15.63
2018-12-03T15:32:25.509Z,14.50
2018-12-03T15:34:53.409Z,14.03
2018-12-03T15:37:21.332Z,13.00
2018-12-03T15:39:49.202Z,18.17
2018-12-03T15:42:17.108Z,19.20
2018-12-03T15:44:45.010Z,16.20
2018-12-03T15:47:12.957Z,19.97
2018-12-03T15:49:40.834Z,16.93
2018-12-03T15:52:08.717Z,12.43
2018-12-03T15:54:36.622Z,16.10
2018-12-03T15:57:04.736Z,16.77
2018-12-03T15:59:32.603Z,19.20
2018-12-03T16:02:00.492Z,16.90
2018-12-03T16:04:28.378Z,16.30
2018-12-03T16:06:56.220Z,18.80
2018-12-03T16:09:24.108Z,17.57
2018-12-03T16:11:51.999Z,15.40
2018-12-03T16:14:19.852Z,21.13
2018-12-03T16:16:47.775Z,16.43
2018-12-03T16:19:15.660Z,17.80
2018-12-03T16:21:43.541Z,14.17
2018-12-03T16:24:11.423Z,19.37
2018-12-03T16:26:39.344Z,14.93
2018-12-03T16:29:07.221Z,18.33
2018-12-03T16:31:35.127Z,14.53
2018-12-03T16:34:03.011Z,15.23
2018-12-03T16:36:30.929Z,17.30
2018-12-03T16:38:58.849Z,19.70
2018-12-03T16:41:26.728Z,15.50
2018-12-03T16:43:54.618Z,14.57
2018-12-03T16:46:22.615Z,17.83
2018-12-03T16:48:50.934Z,13.37
2018-12-03T16:51:18.823Z,17.33
2018-12-03T16:53:46.737Z,14.73
2018-12-03T16:56:14.608Z,23.83
2018-12-03T16:58:42.557Z,17.43
2018-12-03T17:01:10.435Z,13.57
2018-12-03T17:03:38.382Z,15.30
2018-12-03T17:06:06.282Z,17.93
2018-12-03T17:08:34.206Z,19.67
2018-12-03T17:11:02.189Z,16.83
2018-12-03T17:13:30.061Z,16.80
2018-12-03T17:15:57.979Z,15.23
2018-12-03T17:18:25.831Z,16.57
2018-12-03T17:22:06.724Z,18.17
2018-12-03T17:24:36.777Z,14.47
2018-12-03T17:27:05.240Z,13.93
2018-12-03T17:29:33.103Z,16.93
2018-12-03T17:32:01.046Z,13.83
2018-12-03T17:34:28.968Z,12.37
2018-12-03T17:36:56.859Z,14.43
2018-12-03T17:39:24.741Z,16.93
2018-12-03T17:41:52.860Z,13.27
2018-12-03T17:44:20.731Z,15.97
2018-12-03T17:46:48.618Z,13.23
2018-12-03T17:49:16.576Z,18.87
2018-12-03T17:51:44.476Z,14.20
2018-12-03T17:54:12.367Z,13.00
2018-12-03T17:56:40.243Z,23.03
2018-12-03T17:59:08.252Z,20.90
2018-12-03T18:01:36.152Z,15.70
2018-12-03T18:04:04.050Z,12.43
2018-12-03T18:06:31.969Z,21.03
2018-12-03T18:08:59.851Z,16.00
2018-12-03T18:11:27.716Z,14.30
2018-12-03T18:13:55.630Z,17.23
2018-12-03T18:16:23.731Z,17.10
2018-12-03T18:18:51.696Z,21.27
2018-12-03T18:21:19.601Z,16.50
2018-12-03T18:23:47.480Z,14.20
2018-12-03T18:26:15.394Z,16.63
2018-12-03T18:28:43.244Z,15.23
2018-12-03T18:31:11.149Z,15.70
2018-12-03T18:33:39.049Z,15.00
2018-12-03T18:36:06.929Z,15.70
2018-12-03T18:38:34.828Z,12.63
2018-12-03T18:41:03.501Z,13.97
2018-12-03T18:43:30.732Z,15.07
2018-12-03T18:45:58.693Z,12.70
2018-12-03T18:48:26.661Z,13.43
2018-12-03T18:50:55.283Z,15.40
2018-12-03T18:53:25.229Z,17.57
2018-12-03T18:55:53.236Z,15.13
2018-12-03T18:59:27.286Z,14.87
2018-12-03T19:01:55.178Z,14.07
2018-12-03T19:04:52.198Z,15.97
2018-12-03T19:07:20.039Z,19.20
2018-12-03T19:09:47.849Z,17.77
2018-12-03T19:12:15.691Z,13.03
2018-12-03T19:14:43.549Z,13.97
2018-12-03T19:17:11.386Z,14.13
2018-12-03T19:19:39.281Z,14.80
2018-12-03T19:22:07.163Z,13.03
2018-12-03T19:24:35.134Z,12.97
2018-12-03T19:27:03.078Z,12.93
2018-12-03T19:29:30.936Z,13.53
2018-12-03T19:31:58.845Z,14.13
2018-12-03T19:34:26.653Z,12.30
2018-12-03T19:36:54.584Z,11.63
2018-12-03T19:39:22.494Z,12.37
2018-12-03T19:41:50.355Z,13.00
2018-12-03T19:44:18.341Z,12.67
2018-12-03T19:46:46.243Z,18.07
2018-12-03T19:49:14.874Z,11.30
2018-12-03T19:51:42.772Z,15.03
2018-12-03T19:54:10.619Z,12.67
2018-12-03T19:56:38.767Z,13.30
2018-12-03T19:59:06.962Z,13.20
2018-12-03T20:01:34.806Z,17.37
2018-12-03T20:04:02.713Z,13.60
2018-12-03T20:06:30.651Z,13.83
2018-12-03T20:08:58.798Z,13.27
2018-12-03T20:11:26.652Z,15.57
2018-12-03T20:13:54.605Z,16.43
2018-12-03T20:16:22.887Z,12.43
2018-12-03T20:18:51.276Z,20.77
2018-12-03T20:21:24.616Z,19.23
2018-12-03T20:23:55.270Z,15.60
2018-12-03T20:27:31.694Z,12.93
2018-12-03T20:30:08.698Z,13.50
2018-12-03T20:33:00.393Z,14.13
2018-12-03T20:35:46.360Z,13.87
2018-12-03T20:38:54.350Z,17.17
2018-12-03T20:41:28.011Z,17.10
2018-12-03T20:44:09.949Z,17.33
2018-12-03T20:47:43.372Z,16.67
2018-12-03T20:50:18.488Z,14.87
2018-12-03T20:52:47.948Z,19.67
2018-12-03T20:55:30.239Z,14.63
2018-12-03T20:57:58.393Z,17.57
2018-12-03T21:00:26.322Z,14.57
2018-12-03T21:02:57.714Z,16.13
2018-12-03T21:05:25.601Z,20.03
2018-12-03T21:07:53.491Z,15.37
2018-12-03T21:10:21.375Z,17.93
2018-12-03T21:12:49.214Z,18.87
2018-12-03T21:15:17.277Z,14.50
2018-12-03T21:17:45.105Z,18.27
2018-12-03T21:20:20.390Z,18.97
2018-12-03T21:22:48.207Z,16.47
2018-12-03T21:25:15.987Z,20.27
2018-12-03T21:27:43.825Z,16.83
2018-12-03T21:30:11.798Z,19.43
2018-12-03T21:32:39.663Z,17.37
2018-12-03T21:35:07.745Z,15.97
2018-12-03T21:37:35.696Z,17.73
2018-12-03T21:40:03.820Z,17.53
2018-12-03T21:42:45.224Z,17.13
2018-12-03T21:45:13.147Z,18.00
2018-12-03T21:50:35.899Z,25.27
2018-12-03T21:53:10.748Z,14.90
2018-12-03T21:55:38.763Z,14.07
2018-12-03T21:58:06.619Z,14.53
2018-12-03T22:00:34.795Z,12.63
2018-12-03T22:03:02.782Z,14.40
2018-12-03T22:08:05.175Z,10.70
2018-12-03T22:10:32.991Z,16.53
2018-12-03T22:13:00.864Z,15.27
2018-12-03T22:15:28.682Z,13.53
2018-12-03T22:17:56.641Z,14.83
2018-12-03T22:20:24.497Z,10.53
2018-12-03T22:22:52.389Z,14.97
2018-12-03T22:25:20.407Z,10.73
2018-12-03T22:27:48.267Z,12.03
2018-12-03T22:30:16.182Z,10.97
2018-12-03T22:32:44.063Z,10.07
2018-12-03T22:35:18.703Z,8.40
2018-12-03T22:37:46.545Z,10.30
2018-12-03T22:40:14.531Z,14.20
2018-12-03T22:42:42.372Z,8.50
2018-12-03T22:45:10.257Z,12.77
2018-12-03T22:47:38.260Z,6.50
2018-12-03T22:50:06.396Z,5.23
2018-12-03T22:52:34.230Z,4.73
2018-12-03T22:55:02.100Z,1.97
2018-12-03T22:57:29.954Z,3.43
2018-12-03T22:59:57.892Z,2.57
2018-12-03T23:02:25.761Z,2.30
2018-12-03T23:04:53.613Z,5.13
2018-12-03T23:07:21.523Z,2.03
2018-12-03T23:09:49.368Z,4.50
2018-12-03T23:12:17.238Z,3.50
2018-12-03T23:14:45.080Z,1.97
2018-12-03T23:17:13.214Z,5.93
2018-12-03T23:19:41.065Z,3.07
2018-12-03T23:22:08.909Z,3.80
2018-12-03T23:24:36.777Z,4.37
2018-12-03T23:27:04.641Z,3.43
2018-12-03T23:29:32.456Z,2.77
2018-12-03T23:32:00.359Z,3.50
2018-12-03T23:34:28.397Z,5.20
2018-12-03T23:36:56.219Z,2.47
2018-12-03T23:39:24.069Z,5.50
2018-12-03T23:41:52.050Z,3.60
2018-12-03T23:44:19.882Z,5.03
2018-12-03T23:46:47.786Z,3.37
2018-12-03T23:49:15.729Z,5.03
2018-12-03T23:51:43.565Z,3.13
2018-12-03T23:54:11.632Z,5.17
2018-12-03T23:56:39.502Z,4.30
2018-12-03T23:59:07.326Z,5.17
